宮崎空港の過去48時間の天気

宮崎空港 (Miyazaki)

現在時刻: 10/16 15:49 JST (10/16 06:49 UTC) 以下の時間は現地時間です。

過去48時間のMETAR気象情報
時間 風向 風速(m/s) 視程 気温(℃) 湿度(%) 気圧(hPa) 天気現象
16 15:00 北北東 3 10km以上 22 65 1010
16 14:00 北北東 3 10km以上 21 73 1011 弱いしゅう雨
16 13:00 2 10km以上 21 64 1011
16 12:00 北西 2 10km以上 21 60 1012
16 11:00 北西 2 10km以上 20 64 1013
16 10:00 西 2 10km以上 20 64 1013
16 09:00 西 3 10km以上 19 83 1014
16 08:00 西 3 10km以上 18 83 1014
16 07:00 西 1 10km以上 17 88 1014 弱い雨
16 06:10 西北西 3 10km以上 17 88 1014 弱い雨
15 21:00 西 3 10km以上 17 88 1016
15 20:00 西 3 10km以上 18 88 1016
15 19:00 西 2 10km以上 20 78 1016
15 18:00 北北東 2 10km以上 21 64 1016
15 17:00 北東 2 10km以上 22 57 1015
15 16:00 東北東 3 10km以上 22 57 1015
15 15:00 不定 1 10km以上 21 69 1015
15 14:00 東北東 3 10km以上 21 73 1016
15 13:00 北西 2 10km以上 21 64 1016
15 12:00 北北西 3 10km以上 20 73 1017
15 11:00 西北西 3 10km以上 18 83 1018
15 10:00 西 3 10km以上 17 88 1019
15 09:00 西 4 10km以上 16 94 1019
15 08:00 西北西 4 10km以上 16 88 1019 弱い雨
15 07:00 西 4 10km以上 15 94 1018
15 06:10 西 4 10km以上 15 94 1019 弱い雨
14 21:00 西北西 3 10km以上 19 73 1019
14 20:00 北北東 4 10km以上 20 68 1019
14 19:00 東北東 4 10km以上 22 50 1019
14 18:00 北東 2 10km以上 21 56 1019
14 17:00 東北東 2 10km以上 21 56 1019
14 16:00 北東 2 10km以上 22 50 1019
RJFM 160600Z 02005KT 330V050 9999 FEW020 SCT030 BKN080 22/15 Q1010
RJFM 160500Z 02005KT 9999 -SHRA FEW020 BKN030 BKN050 21/16 Q1011
RJFM 160400Z 01003KT 300V070 9999 FEW020 BKN030 BKN080 21/14 Q1011
RJFM 160300Z 31003KT 290V350 9999 FEW020 BKN030 BKN080 21/13 Q1012
RJFM 160200Z 31004KT 9999 FEW020 BKN035 BKN080 20/13 Q1013
RJFM 160100Z 28004KT 9999 FEW020 BKN040 20/13 Q1013
RJFM 160000Z 28006KT 9999 FEW030 BKN060 BKN150 19/16 Q1014
RJFM 152300Z 28005KT 9999 FEW030 BKN060 18/15 Q1014
RJFM 152200Z 26002KT 9999 -RA FEW020 SCT045 BKN070 17/15 Q1014
RJFM 152110Z 30005KT 280V340 9999 -RA FEW020 SCT045 BKN070 17/15 Q1014 RMK 1CU020 4SC045 7AS070 A2996
RJFM 151200Z 28006KT 9999 FEW030 SCT060 BKN090 17/15 Q1016
RJFM 151100Z 27006KT 9999 FEW030 SCT080 BKN100 18/16 Q1016
RJFM 151000Z 27004KT 9999 FEW030 SCT090 BKN100 20/16 Q1016
RJFM 150900Z 03004KT 9999 FEW030 SCT080 BKN100 21/14 Q1016
RJFM 150800Z 05004KT 9999 FEW030 SCT080 BKN100 22/13 Q1015
RJFM 150700Z 06005KT 040V100 9999 FEW030 BKN080 BKN090 22/13 Q1015
RJFM 150600Z VRB02KT 9999 FEW030 SCT060 BKN080 21/15 Q1015
RJFM 150500Z 07006KT 9999 FEW020 SCT060 BKN080 21/16 Q1016
RJFM 150400Z 31004KT 9999 FEW015 SCT060 BKN070 21/14 Q1016
RJFM 150300Z 33005KT 280V350 9999 FEW008 SCT060 BKN070 20/15 Q1017
RJFM 150200Z 29006KT 9999 FEW008 SCT050 BKN070 18/15 Q1018
RJFM 150100Z 28005KT 9999 FEW010 BKN060 BKN080 17/15 Q1019
RJFM 150000Z 27007KT 9999 FEW010 SCT050 BKN070 16/15 Q1019
RJFM 142300Z 29008KT 9999 -RA FEW010 BKN050 BKN070 16/14 Q1019
RJFM 142200Z 27007KT 9999 FEW010 SCT050 BKN070 15/14 Q1018
RJFM 142110Z 27007KT 9999 -RA FEW020 BKN070 BKN120 15/14 Q1019 RMK 1CU020 6AC070 7AC120 A3009
RJFM 141200Z 29005KT 9999 FEW030 SCT050 BKN130 19/14 Q1019
RJFM 141100Z 02007KT 260V060 9999 FEW030 SCT050 BKN140 20/14 Q1019
RJFM 141000Z 06007KT 9999 FEW030 BKN050 BKN150 22/11 Q1019
RJFM 140900Z 04004KT 9999 FEW030 BKN045 BKN130 21/12 Q1019
RJFM 140800Z 07004KT 9999 FEW030 SCT050 BKN170 21/12 Q1019
RJFM 140700Z 05004KT 9999 FEW030 BKN050 BKN/// 22/11 Q1019